Terminal Aerodrome Forecast
Issued by NWS

Home | Current Version | Previous Version | Graphics & Text | Print | Product List | Glossary Off
Versions: 1 2 3 4 5 6 7 8 9 10 11 12 13 14 15 16 17 18 19 20 21 22 23 24 25

000
FTUS43 KABR 221100 CCA
TAFMBG
TAF COR
KMBG 221140Z 2212/2312 01006KT P6SM FEW040 BKN080 OVC150
      TEMPO 2212/2214 -SHRA BKN050 OVC080
     FM221400 05008KT P6SM SCT120
     FM230900 05013KT P6SM -SHRA SCT050 BKN080 OVC110=

USA.gov is the U.S. government's official web portal to all federal, state and local government web resources and services.